Time;durP1;ratioP1;P1;durP2;ratioP2;P2;SDS_P1;SDS_P2;PMS_P1;PMS_P2;Temp;Humidity;BMP_temperature;BMP_pressure;BME280_temperature;BME280_humidity;BME280_pressure;Samples;Min_cycle;Max_cycle;Signal;HPM_P1;HPM_P2
2023/01/11 00:02:12;;;;;;;15.23;13.77;;;9.60;98.40;;;;;;5088660;28;20406;-91
2023/01/11 00:04:37;;;;;;;17.00;15.30;;;9.60;98.40;;;;;;5106090;28;20399;-89
2023/01/11 00:07:03;;;;;;;15.17;13.67;;;10.20;98.60;;;;;;5089500;28;20459;-90
2023/01/11 00:09:29;;;;;;;16.52;14.82;;;9.60;98.40;;;;;;5088725;28;20897;-91
2023/01/11 00:11:54;;;;;;;19.57;16.40;;;9.70;98.40;;;;;;5106442;28;20433;-90
2023/01/11 00:14:20;;;;;;;15.97;14.27;;;9.60;98.50;;;;;;5088285;28;20494;-93
2023/01/11 00:16:46;;;;;;;16.27;14.57;;;9.70;98.50;;;;;;5092819;28;20399;-90
2023/01/11 00:19:12;;;;;;;16.00;14.30;;;9.70;98.50;;;;;;5092281;28;20483;-91
2023/01/11 00:21:38;;;;;;;16.58;14.63;;;9.70;98.50;;;;;;5092488;28;20395;-90
2023/01/11 00:24:04;;;;;;;16.83;15.05;;;9.70;98.50;;;;;;5109484;28;20405;-89
2023/01/11 00:26:30;;;;;;;20.45;17.20;;;9.80;98.80;;;;;;5092632;28;20836;-91
2023/01/11 00:28:56;;;;;;;18.73;15.77;;;10.00;98.50;;;;;;5093082;28;20427;-91
2023/01/11 00:31:22;;;;;;;16.52;14.73;;;9.80;98.50;;;;;;5091228;28;20489;-90
2023/01/11 00:33:47;;;;;;;18.27;16.00;;;9.50;98.40;;;;;;5092958;28;20493;-90
2023/01/11 00:36:13;;;;;;;16.27;14.57;;;10.00;98.50;;;;;;5108468;28;20401;-89
2023/01/11 00:38:52;;;;;;;16.25;14.57;;;10.10;98.50;;;;;;5092138;28;20819;-90
2023/01/11 00:49:33;;;;;;;14.00;12.40;;;9.90;98.50;;;;;;5109665;27;20487;-90
2023/01/11 00:52:00;;;;;;;13.90;12.40;;;9.90;98.50;;;;;;5093340;27;20423;-90
2023/01/11 00:54:25;;;;;;;13.88;12.38;;;9.90;98.50;;;;;;5093132;27;20450;-91
2023/01/11 00:56:51;;;;;;;12.25;10.90;;;9.90;98.80;;;;;;5092408;27;20497;-88
2023/01/11 00:59:17;;;;;;;14.00;11.70;;;9.90;98.50;;;;;;5093572;27;20502;-89
2023/01/11 01:01:42;;;;;;;11.75;10.55;;;10.00;98.50;;;;;;5092119;27;20391;-91
2023/01/11 01:04:08;;;;;;;12.63;10.27;;;10.00;98.50;;;;;;5093565;27;20440;-90
2023/01/11 01:06:33;;;;;;;12.77;10.87;;;9.90;98.60;;;;;;5092309;27;20824;-91
2023/01/11 01:08:59;;;;;;;11.13;9.60;;;10.20;98.60;;;;;;5093175;27;20406;-91
2023/01/11 01:11:25;;;;;;;10.23;9.15;;;10.20;98.60;;;;;;5091955;27;20406;-90
2023/01/11 01:16:36;;;;;;;9.45;8.45;;;10.20;98.70;;;;;;5110206;27;20398;-90
2023/01/11 01:19:01;;;;;;;8.63;7.72;;;10.10;98.70;;;;;;5092014;27;20399;-89
2023/01/11 01:21:27;;;;;;;8.40;7.60;;;10.10;98.70;;;;;;5093230;27;20421;-91
2023/01/11 01:23:56;;;;;;;8.73;7.83;;;10.10;98.60;;;;;;5091849;27;20494;-90
2023/01/11 01:26:22;;;;;;;8.93;8.02;;;10.10;98.70;;;;;;5092948;27;20438;-90
2023/01/11 01:28:51;;;;;;;8.02;7.00;;;10.20;98.70;;;;;;5091793;27;20413;-89
2023/01/11 01:31:17;;;;;;;8.57;7.67;;;10.20;98.70;;;;;;5092102;27;20758;-89
2023/01/11 01:33:42;;;;;;;10.73;8.43;;;10.30;98.70;;;;;;5110042;27;20407;-90
2023/01/11 01:36:08;;;;;;;10.65;7.80;;;10.30;98.70;;;;;;5091662;27;20399;-90
2023/01/11 01:38:34;;;;;;;7.35;6.65;;;10.30;98.70;;;;;;5093014;27;20418;-91
2023/01/11 01:41:00;;;;;;;7.40;6.60;;;10.30;98.70;;;;;;5108415;27;20399;-91
2023/01/11 01:43:46;;;;;;;8.93;7.23;;;10.40;98.70;;;;;;5092302;27;20391;-91
2023/01/11 01:46:12;;;;;;;6.35;5.70;;;10.50;98.80;;;;;;5092401;27;20414;-89
2023/01/11 01:48:42;;;;;;;6.80;6.10;;;10.40;98.80;;;;;;5091902;27;20399;-90
2023/01/11 01:51:12;;;;;;;8.07;6.60;;;10.50;98.80;;;;;;5109951;27;20485;-91
2023/01/11 01:53:42;;;;;;;7.83;6.60;;;10.50;99.00;;;;;;5090996;27;20422;-90
2023/01/11 01:56:14;;;;;;;6.57;5.97;;;10.70;98.80;;;;;;5091967;27;20391;-91
2023/01/11 01:58:51;;;;;;;7.47;6.60;;;10.70;98.90;;;;;;5091237;27;20402;-89
2023/01/11 02:04:10;;;;;;;8.07;6.55;;;10.50;98.80;;;;;;5109153;27;20403;-91
2023/01/11 02:06:36;;;;;;;7.82;6.90;;;10.60;98.90;;;;;;5090897;27;20402;-91
2023/01/11 02:09:07;;;;;;;8.75;7.28;;;10.50;98.80;;;;;;5109181;27;20411;-90
2023/01/11 02:11:37;;;;;;;9.88;8.13;;;10.60;98.80;;;;;;5091559;27;20395;-91
2023/01/11 02:14:07;;;;;;;7.97;7.03;;;11.00;99.00;;;;;;5091967;27;20427;-91
2023/01/11 02:16:34;;;;;;;7.90;6.97;;;10.80;98.90;;;;;;5091395;27;20406;-89
2023/01/11 02:19:00;;;;;;;8.85;7.13;;;10.80;99.00;;;;;;5108276;27;20765;-89
2023/01/11 02:22:03;;;;;;;8.50;7.05;;;10.40;98.80;;;;;;5091764;27;20410;-90
2023/01/11 02:24:52;;;;;;;7.97;6.93;;;10.70;98.90;;;;;;5091180;27;20487;-92
2023/01/11 02:28:01;;;;;;;7.78;6.43;;;10.70;98.90;;;;;;5091434;27;20455;-93
2023/01/11 02:30:30;;;;;;;7.97;6.13;;;10.70;98.90;;;;;;5086859;27;20439;-90
2023/01/11 02:33:17;;;;;;;8.32;6.75;;;10.70;98.90;;;;;;5107628;27;20510;-92
2023/01/11 02:35:49;;;;;;;9.68;7.95;;;10.70;98.90;;;;;;5108481;27;20486;-91
2023/01/11 02:38:40;;;;;;;11.35;8.95;;;10.80;98.90;;;;;;5107420;27;20399;-90
2023/01/11 02:41:20;;;;;;;15.30;10.43;;;10.80;98.90;;;;;;5093247;27;20391;-88
2023/01/11 02:46:49;;;;;;;13.60;10.32;;;10.80;98.80;;;;;;5107600;27;20912;-88
2023/01/11 02:49:36;;;;;;;11.82;9.45;;;11.10;98.90;;;;;;5108054;27;20422;-88
2023/01/11 02:52:23;;;;;;;11.00;8.70;;;10.80;98.80;;;;;;5085162;27;20437;-91
2023/01/11 02:54:54;;;;;;;13.73;10.27;;;10.80;98.80;;;;;;5090360;27;20406;-90
2023/01/11 02:57:21;;;;;;;14.47;10.33;;;10.80;98.80;;;;;;5091461;27;20426;-90
2023/01/11 02:59:48;;;;;;;13.60;10.00;;;10.80;98.80;;;;;;5090278;27;20395;-88
2023/01/11 03:02:15;;;;;;;12.88;9.73;;;10.80;98.80;;;;;;5090162;27;20406;-90
2023/01/11 03:04:41;;;;;;;11.27;8.63;;;10.80;98.80;;;;;;5107937;27;20409;-92
2023/01/11 03:07:17;;;;;;;14.23;11.00;;;10.80;98.70;;;;;;5089830;27;20482;-89
2023/01/11 03:10:18;;;;;;;16.98;11.48;;;10.80;98.70;;;;;;5091463;27;20402;-90
2023/01/11 03:13:35;;;;;;;14.63;11.30;;;10.80;98.60;;;;;;5093727;27;20449;-91
2023/01/11 03:16:20;;;;;;;14.18;10.25;;;10.80;98.60;;;;;;4989578;28;20439;-92
2023/01/11 03:19:18;;;;;;;17.73;11.40;;;10.80;98.50;;;;;;5083545;27;20399;-90
2023/01/11 03:22:21;;;;;;;18.48;12.65;;;10.80;98.60;;;;;;5090362;27;20905;-89
2023/01/11 03:24:54;;;;;;;24.98;15.57;;;10.80;98.60;;;;;;5089354;27;20444;-89
2023/01/11 03:27:32;;;;;;;30.20;17.58;;;10.90;98.60;;;;;;5107476;28;20484;-89
2023/01/11 03:30:02;;;;;;;29.17;18.00;;;11.00;98.60;;;;;;5107100;28;20424;-89
2023/01/11 03:33:03;;;;;;;29.63;18.67;;;10.80;98.60;;;;;;5107100;28;20423;-88
2023/01/11 03:35:41;;;;;;;25.92;17.00;;;10.80;98.50;;;;;;5107316;28;20940;-90
2023/01/11 03:38:28;;;;;;;34.83;18.75;;;10.80;98.50;;;;;;5089593;28;20410;-89
2023/01/11 03:41:04;;;;;;;24.08;11.70;;;10.80;98.50;;;;;;5090806;28;20430;-90
2023/01/11 03:43:32;;;;;;;28.77;11.43;;;10.80;98.50;;;;;;5090516;28;20398;-89
2023/01/11 03:46:03;;;;;;;33.13;12.40;;;10.80;98.50;;;;;;5089148;28;20411;-89
2023/01/11 03:48:40;;;;;;;28.58;11.00;;;10.80;98.50;;;;;;5090607;27;20398;-90
2023/01/11 03:51:11;;;;;;;27.58;9.60;;;10.80;98.50;;;;;;5092710;27;20418;-90
2023/01/11 03:53:39;;;;;;;22.80;7.45;;;10.80;98.50;;;;;;5111637;27;20418;-90
2023/01/11 03:56:09;;;;;;;25.10;7.47;;;10.80;98.50;;;;;;5094066;27;20393;-90
2023/01/11 03:58:35;;;;;;;27.92;7.38;;;10.80;98.50;;;;;;5110625;27;20947;-90
2023/01/11 04:01:01;;;;;;;32.28;7.90;;;10.80;98.50;;;;;;5094633;27;20968;-90
2023/01/11 04:03:27;;;;;;;32.05;6.53;;;11.00;98.50;;;;;;5093229;27;20382;-90
2023/01/11 04:05:57;;;;;;;20.17;3.65;;;11.10;98.50;;;;;;5111591;27;20398;-91
2023/01/11 04:08:22;;;;;;;17.95;3.08;;;10.90;98.40;;;;;;5093544;27;20398;-90
2023/01/11 04:10:48;;;;;;;14.30;2.17;;;10.80;97.70;;;;;;5094522;27;20905;-91
2023/01/11 04:13:14;;;;;;;10.93;1.43;;;10.60;97.50;;;;;;5110971;27;20498;-91
2023/01/11 04:15:39;;;;;;;12.30;1.50;;;10.50;97.00;;;;;;5093938;27;20386;-90
2023/01/11 04:18:05;;;;;;;14.93;1.67;;;10.40;97.20;;;;;;5093768;27;20395;-91
2023/01/11 04:20:37;;;;;;;18.15;2.55;;;10.50;97.30;;;;;;5092911;27;20401;-89
2023/01/11 04:23:03;;;;;;;20.85;3.13;;;10.30;97.60;;;;;;5111591;27;20457;-90
2023/01/11 04:25:29;;;;;;;27.13;4.03;;;10.30;97.70;;;;;;5093168;27;20441;-89
2023/01/11 04:27:56;;;;;;;31.52;4.78;;;10.20;98.00;;;;;;5094467;27;20391;-89
2023/01/11 04:30:21;;;;;;;28.13;4.90;;;10.30;98.20;;;;;;5092837;27;20394;-88
2023/01/11 04:32:47;;;;;;;23.23;4.57;;;10.30;98.40;;;;;;5110637;27;20431;-90
2023/01/11 04:35:14;;;;;;;22.50;3.72;;;10.30;98.40;;;;;;5093751;27;20402;-89
2023/01/11 04:37:39;;;;;;;28.27;4.45;;;10.30;98.30;;;;;;5093166;27;20394;-90
2023/01/11 04:40:05;;;;;;;29.85;4.75;;;10.40;98.30;;;;;;5093912;27;20463;-89
2023/01/11 04:42:31;;;;;;;26.10;4.50;;;10.40;98.40;;;;;;5092581;27;20394;-90
2023/01/11 04:44:57;;;;;;;38.35;5.38;;;10.30;98.40;;;;;;5093865;27;20758;-90
2023/01/11 04:47:24;;;;;;;39.27;5.87;;;10.40;98.50;;;;;;5109579;27;20489;-90
2023/01/11 04:49:50;;;;;;;25.38;3.85;;;10.40;98.40;;;;;;5093261;27;20412;-91
2023/01/11 04:52:17;;;;;;;23.37;3.20;;;10.40;98.50;;;;;;5092798;27;20430;-90
2023/01/11 04:54:44;;;;;;;21.25;3.63;;;10.40;98.10;;;;;;5093360;27;21237;-91
2023/01/11 04:57:14;;;;;;;20.27;3.25;;;10.30;97.90;;;;;;5093881;27;20429;-90
2023/01/11 04:59:40;;;;;;;28.37;3.60;;;10.30;98.10;;;;;;5092681;27;20524;-90
2023/01/11 05:02:06;;;;;;;24.57;3.17;;;10.40;97.90;;;;;;5093329;27;20406;-90
2023/01/11 05:04:32;;;;;;;24.03;3.67;;;10.50;97.80;;;;;;5109697;27;20905;-90
2023/01/11 05:06:58;;;;;;;26.20;3.88;;;10.40;97.80;;;;;;5093590;27;20757;-90
2023/01/11 05:09:23;;;;;;;31.17;4.40;;;10.30;97.70;;;;;;5109382;27;20394;-88
2023/01/11 05:11:49;;;;;;;37.72;5.07;;;10.30;97.80;;;;;;5093211;27;20418;-90
2023/01/11 05:14:15;;;;;;;39.23;5.53;;;10.30;97.90;;;;;;5093259;27;20399;-90
2023/01/11 05:16:42;;;;;;;41.13;5.22;;;10.20;97.90;;;;;;5092260;27;20410;-90
2023/01/11 05:19:09;;;;;;;43.00;5.55;;;10.40;98.10;;;;;;5092819;27;20411;-89
2023/01/11 05:21:39;;;;;;;41.75;5.88;;;10.30;98.40;;;;;;5108871;27;20973;-90
2023/01/11 05:24:07;;;;;;;39.87;5.70;;;10.30;98.00;;;;;;5093238;27;20387;-89
2023/01/11 05:26:35;;;;;;;39.92;5.50;;;10.20;98.00;;;;;;5092560;27;20402;-89
2023/01/11 05:29:05;;;;;;;48.30;5.65;;;10.20;98.10;;;;;;5092479;27;20403;-90
2023/01/11 05:31:31;;;;;;;33.50;5.13;;;10.30;98.00;;;;;;5092767;27;20734;-89
2023/01/11 05:33:58;;;;;;;35.97;4.82;;;10.20;98.00;;;;;;5092120;27;20761;-89
2023/01/11 05:36:25;;;;;;;31.73;3.97;;;10.10;97.70;;;;;;5092996;27;20428;-89
2023/01/11 05:38:52;;;;;;;34.70;4.13;;;10.20;97.60;;;;;;5108772;27;20474;-89
2023/01/11 05:41:20;;;;;;;31.77;4.10;;;10.00;97.50;;;;;;5109479;27;20931;-90
2023/01/11 05:46:33;;;;;;;28.17;3.45;;;9.80;97.30;;;;;;5108893;27;20842;-89
2023/01/11 05:49:00;;;;;;;25.47;3.13;;;9.70;97.40;;;;;;5092746;27;20766;-90
2023/01/11 05:51:29;;;;;;;28.90;3.03;;;9.60;97.30;;;;;;5091666;27;20768;-89
2023/01/11 05:53:58;;;;;;;32.67;3.77;;;9.60;97.30;;;;;;5109822;27;20735;-89
2023/01/11 05:56:25;;;;;;;31.17;3.47;;;9.80;97.50;;;;;;5091285;27;20859;-90
2023/01/11 05:58:51;;;;;;;26.25;3.30;;;9.50;97.50;;;;;;5092127;27;20414;-89
2023/01/11 06:01:19;;;;;;;31.20;4.00;;;9.50;97.60;;;;;;5091141;27;20889;-89
2023/01/11 06:03:45;;;;;;;28.80;3.35;;;9.50;97.70;;;;;;5108114;27;20423;-88
2023/01/11 06:06:11;;;;;;;36.57;4.43;;;9.50;97.70;;;;;;5109048;27;20402;-88
2023/01/11 06:08:36;;;;;;;40.97;4.35;;;9.50;97.90;;;;;;5090795;27;20394;-89
2023/01/11 06:11:02;;;;;;;40.20;5.00;;;9.60;98.10;;;;;;5108770;27;20399;-88
2023/01/11 06:13:28;;;;;;;32.00;4.50;;;9.50;98.10;;;;;;5089334;27;20505;-89
2023/01/11 06:15:59;;;;;;;34.97;4.05;;;9.50;98.20;;;;;;5091610;27;20394;-89
2023/01/11 06:18:25;;;;;;;37.57;4.80;;;9.60;98.20;;;;;;5107428;27;20403;-88
2023/01/11 06:20:51;;;;;;;40.97;4.30;;;9.50;98.00;;;;;;5091745;27;20852;-89
2023/01/11 06:23:17;;;;;;;40.60;4.63;;;9.50;98.00;;;;;;5091391;27;20404;-89
2023/01/11 06:25:44;;;;;;;37.65;4.70;;;9.50;97.90;;;;;;5090783;27;20403;-89
2023/01/11 06:28:10;;;;;;;33.15;4.05;;;9.50;97.90;;;;;;5091323;27;20408;-89
2023/01/11 06:30:36;;;;;;;36.63;4.10;;;9.50;97.80;;;;;;5106980;27;20391;-89
2023/01/11 06:33:05;;;;;;;31.25;4.18;;;9.40;97.90;;;;;;5091678;27;20957;-90
2023/01/11 06:35:42;;;;;;;27.17;4.00;;;9.40;97.90;;;;;;5090290;27;20415;-90
2023/01/11 06:38:10;;;;;;;26.55;3.50;;;9.70;98.10;;;;;;5107986;27;20401;-90
2023/01/11 06:40:37;;;;;;;29.20;3.35;;;9.60;97.90;;;;;;5091450;27;20730;-89
2023/01/11 06:43:03;;;;;;;21.40;2.50;;;9.40;97.90;;;;;;5090457;27;20909;-91
2023/01/11 06:45:29;;;;;;;19.25;2.60;;;9.40;97.70;;;;;;5091443;27;20482;-90
2023/01/11 06:47:55;;;;;;;19.85;2.30;;;9.60;97.60;;;;;;5090315;27;20473;-89
2023/01/11 06:50:21;;;;;;;23.43;2.30;;;9.70;97.50;;;;;;5091226;27;20398;-90
2023/01/11 06:52:57;;;;;;;16.35;1.95;;;9.40;97.40;;;;;;5089950;27;20632;-90
2023/01/11 06:55:26;;;;;;;22.13;2.58;;;9.40;97.40;;;;;;5090540;27;20418;-89
2023/01/11 06:57:52;;;;;;;20.52;2.55;;;9.40;97.30;;;;;;5090228;27;20428;-88
2023/01/11 07:00:18;;;;;;;20.13;2.50;;;9.40;97.40;;;;;;5089943;27;20449;-88
2023/01/11 07:02:44;;;;;;;18.70;2.20;;;9.40;97.40;;;;;;5090640;27;20451;-88
2023/01/11 07:05:10;;;;;;;25.75;2.70;;;9.40;97.30;;;;;;5089674;27;20432;-90
2023/01/11 07:07:37;;;;;;;18.45;2.33;;;9.70;97.40;;;;;;5090754;27;20452;-89
2023/01/11 07:10:08;;;;;;;25.50;2.40;;;9.40;97.40;;;;;;5090073;27;20433;-89
2023/01/11 07:12:34;;;;;;;18.63;2.13;;;9.30;97.30;;;;;;5090880;27;20909;-88
2023/01/11 07:15:00;;;;;;;26.23;2.83;;;9.30;97.60;;;;;;5090251;27;20412;-90
2023/01/11 07:17:26;;;;;;;22.27;2.40;;;9.30;97.20;;;;;;5090374;27;20402;-89
2023/01/11 07:19:51;;;;;;;17.93;1.87;;;9.20;97.20;;;;;;5107261;27;20884;-89
2023/01/11 07:22:17;;;;;;;23.13;2.28;;;9.20;97.20;;;;;;5089739;27;20486;-88
2023/01/11 07:24:42;;;;;;;22.33;2.60;;;9.10;97.10;;;;;;5090147;27;20407;-89
2023/01/11 07:27:08;;;;;;;22.07;2.10;;;9.00;97.20;;;;;;5089292;27;20402;-91
2023/01/11 07:29:34;;;;;;;19.83;2.03;;;9.00;97.60;;;;;;5091121;28;20490;-89
2023/01/11 07:31:59;;;;;;;20.03;2.83;;;9.00;97.40;;;;;;5089724;27;20935;-89
2023/01/11 07:34:25;;;;;;;21.07;2.60;;;9.00;97.50;;;;;;5090932;28;20403;-89
2023/01/11 07:36:50;;;;;;;20.25;2.13;;;9.00;97.50;;;;;;5089978;28;20399;-89
2023/01/11 07:39:16;;;;;;;15.83;1.83;;;9.00;97.50;;;;;;5090027;28;20903;-90
2023/01/11 07:44:26;;;;;;;14.80;1.70;;;9.10;97.40;;;;;;5105853;28;20835;-89
2023/01/11 07:46:51;;;;;;;18.50;2.50;;;9.10;97.40;;;;;;5090990;28;20425;-88
2023/01/11 07:49:17;;;;;;;16.20;2.17;;;9.10;97.30;;;;;;5089663;28;20449;-88
2023/01/11 07:51:43;;;;;;;20.63;2.03;;;9.10;97.20;;;;;;5089812;28;20424;-89
2023/01/11 07:54:08;;;;;;;18.85;2.30;;;9.10;97.20;;;;;;5089966;28;20809;-89
2023/01/11 07:56:34;;;;;;;17.00;1.70;;;9.30;97.10;;;;;;5090233;28;20439;-89
2023/01/11 07:58:59;;;;;;;16.73;1.47;;;9.10;97.00;;;;;;5090334;28;20993;-89
2023/01/11 08:01:25;;;;;;;14.43;1.60;;;9.10;97.00;;;;;;5089186;28;20397;-90
2023/01/11 08:03:51;;;;;;;17.53;1.40;;;9.10;96.90;;;;;;5090854;28;20893;-89
2023/01/11 08:06:16;;;;;;;13.93;2.35;;;9.10;96.90;;;;;;5089286;28;20390;-89
2023/01/11 08:08:43;;;;;;;17.60;1.83;;;9.10;96.80;;;;;;5090112;28;20399;-88
2023/01/11 08:16:38;;;;;;;14.88;1.80;;;9.10;96.50;;;;;;5107344;28;20403;-89
2023/01/11 08:19:04;;;;;;;12.90;1.60;;;9.10;96.50;;;;;;5088914;28;20403;-90
2023/01/11 08:21:29;;;;;;;13.32;1.38;;;9.00;96.50;;;;;;5090515;28;20399;-91
2023/01/11 08:23:57;;;;;;;14.65;1.55;;;9.10;96.40;;;;;;5089241;28;20405;-90
2023/01/11 08:26:24;;;;;;;15.40;1.45;;;9.20;96.40;;;;;;5107050;28;20425;-90
2023/01/11 08:28:50;;;;;;;16.92;1.85;;;9.10;96.40;;;;;;5090027;28;20407;-90
2023/01/11 08:31:16;;;;;;;12.43;1.48;;;8.90;96.30;;;;;;5089087;28;20406;-91
2023/01/11 08:33:41;;;;;;;16.88;2.20;;;9.10;96.30;;;;;;5090428;28;20456;-90
2023/01/11 08:36:09;;;;;;;13.32;1.75;;;8.80;96.10;;;;;;5090515;27;20390;-90
2023/01/11 08:38:35;;;;;;;16.15;1.70;;;8.80;96.00;;;;;;5094171;27;20406;-91
2023/01/11 08:41:01;;;;;;;12.93;1.48;;;8.70;95.90;;;;;;5093067;27;20414;-91
2023/01/11 08:43:30;;;;;;;15.65;1.50;;;8.60;95.90;;;;;;5093660;27;20410;-92
2023/01/11 08:45:56;;;;;;;13.77;1.63;;;8.60;95.90;;;;;;5092906;27;20471;-90
2023/01/11 08:48:22;;;;;;;12.63;1.67;;;8.60;96.00;;;;;;5093165;27;20762;-91
2023/01/11 08:50:48;;;;;;;17.13;1.92;;;8.50;96.00;;;;;;5093188;27;20391;-88
2023/01/11 08:53:14;;;;;;;14.10;1.70;;;8.50;96.10;;;;;;5092285;27;20411;-89
2023/01/11 08:55:43;;;;;;;13.25;2.00;;;8.40;96.00;;;;;;5093576;27;20509;-90
2023/01/11 08:58:09;;;;;;;16.77;1.95;;;8.40;96.10;;;;;;5109439;27;20390;-89
2023/01/11 09:00:34;;;;;;;18.50;2.20;;;8.40;96.20;;;;;;5093199;27;20413;-90
2023/01/11 09:03:00;;;;;;;16.10;1.77;;;8.40;96.30;;;;;;5092535;27;20414;-90
2023/01/11 09:05:26;;;;;;;13.77;1.55;;;8.50;96.30;;;;;;5092851;27;20403;-90
2023/01/11 09:07:55;;;;;;;13.02;1.42;;;8.50;96.00;;;;;;5092681;27;20956;-89
2023/01/11 09:10:20;;;;;;;14.40;1.67;;;8.70;96.10;;;;;;5092624;27;20410;-89
2023/01/11 09:12:46;;;;;;;17.60;1.73;;;8.70;96.00;;;;;;5093165;27;20428;-90
2023/01/11 09:15:12;;;;;;;13.65;1.50;;;8.80;96.00;;;;;;5109104;27;20390;-88
2023/01/11 09:17:37;;;;;;;14.95;1.95;;;8.80;95.80;;;;;;5093311;27;20459;-89
2023/01/11 09:20:03;;;;;;;12.60;1.30;;;8.80;95.80;;;;;;5108993;27;20395;-90
2023/01/11 09:22:29;;;;;;;12.00;1.77;;;8.80;95.50;;;;;;5092622;27;20783;-89
2023/01/11 09:24:57;;;;;;;12.60;1.75;;;8.80;95.50;;;;;;5092174;27;20409;-88
2023/01/11 09:27:23;;;;;;;16.42;1.92;;;8.70;95.40;;;;;;5092062;27;20440;-89
2023/01/11 09:29:48;;;;;;;14.43;1.57;;;8.80;95.50;;;;;;5092572;27;21571;-89
2023/01/11 09:32:14;;;;;;;12.93;1.45;;;8.80;95.50;;;;;;5091723;27;20423;-90
2023/01/11 09:34:41;;;;;;;12.80;1.33;;;8.80;95.40;;;;;;5092942;27;20455;-90
2023/01/11 09:37:07;;;;;;;10.63;1.00;;;8.80;95.60;;;;;;5091055;27;20430;-90
2023/01/11 09:39:34;;;;;;;10.35;1.42;;;8.90;95.30;;;;;;5092794;27;20477;-89
2023/01/11 09:42:09;;;;;;;10.25;1.35;;;9.10;95.30;;;;;;5092102;27;20429;-89
2023/01/11 09:44:44;;;;;;;12.10;1.65;;;9.00;95.20;;;;;;5091948;27;20891;-89
2023/01/11 09:47:19;;;;;;;11.25;1.60;;;9.00;95.60;;;;;;5091121;28;20406;-90
2023/01/11 09:49:53;;;;;;;14.40;1.65;;;9.10;95.60;;;;;;5091867;27;21202;-89
2023/01/11 09:52:28;;;;;;;9.18;1.00;;;9.40;95.60;;;;;;5092281;27;20441;-90
2023/01/11 09:54:57;;;;;;;11.35;1.50;;;9.60;95.80;;;;;;5091139;27;20429;-89
2023/01/11 09:58:08;;;;;;;10.45;1.17;;;9.80;94.60;;;;;;5091931;27;20421;-89
2023/01/11 10:00:59;;;;;;;12.85;1.30;;;9.90;94.10;;;;;;5094682;27;20407;-90
2023/01/11 10:03:56;;;;;;;10.15;1.20;;;10.10;93.70;;;;;;5091370;27;20796;-90
2023/01/11 10:06:50;;;;;;;12.10;1.30;;;10.20;93.60;;;;;;5108757;27;20474;-89
2023/01/11 10:09:38;;;;;;;10.65;0.98;;;10.30;93.30;;;;;;5108881;27;20418;-88
2023/01/11 10:12:42;;;;;;;11.73;1.10;;;10.50;93.50;;;;;;5091480;27;20426;-91
2023/01/11 10:15:24;;;;;;;10.82;0.98;;;10.70;92.60;;;;;;5108187;27;20469;-89
2023/01/11 10:18:18;;;;;;;9.55;1.15;;;10.70;91.80;;;;;;5091986;27;20401;-90
2023/01/11 10:20:51;;;;;;;10.23;1.20;;;10.60;91.90;;;;;;5091182;27;21120;-90
2023/01/11 10:23:31;;;;;;;11.15;1.33;;;10.50;92.10;;;;;;5091872;27;20482;-91
2023/01/11 10:26:03;;;;;;;9.93;1.25;;;10.40;91.70;;;;;;5091658;27;20403;-89
2023/01/11 10:28:38;;;;;;;9.30;1.35;;;10.40;92.00;;;;;;5090389;27;20395;-91
2023/01/11 10:31:28;;;;;;;7.53;1.25;;;10.30;92.40;;;;;;5091641;27;20403;-91
2023/01/11 10:40:06;;;;;;;10.68;1.65;;;10.30;92.80;;;;;;5108879;27;20761;-90
2023/01/11 10:42:43;;;;;;;10.52;1.73;;;10.30;92.50;;;;;;5107552;27;20418;-90
2023/01/11 10:45:17;;;;;;;12.05;1.50;;;10.30;93.10;;;;;;5090728;27;20409;-89
2023/01/11 10:48:04;;;;;;;14.15;2.30;;;10.50;93.20;;;;;;5108130;27;20547;-90
2023/01/11 10:50:46;;;;;;;13.43;2.40;;;10.70;92.50;;;;;;5090594;27;20394;-90
2023/01/11 10:53:31;;;;;;;13.43;2.17;;;10.80;92.30;;;;;;5091224;27;20425;-92
2023/01/11 10:56:06;;;;;;;11.75;1.60;;;11.00;92.00;;;;;;5091233;27;20794;-89
2023/01/11 10:59:04;;;;;;;11.18;1.60;;;11.40;92.30;;;;;;5090321;27;20399;-90
2023/01/11 11:01:37;;;;;;;12.63;1.70;;;11.40;91.50;;;;;;5090965;27;20414;-91
2023/01/11 11:04:30;;;;;;;12.38;1.77;;;11.60;90.30;;;;;;5106736;27;20395;-90
2023/01/11 11:07:04;;;;;;;14.50;1.88;;;11.80;90.60;;;;;;5107675;27;20433;-91
2023/01/11 11:09:54;;;;;;;13.90;1.70;;;11.90;90.70;;;;;;5107873;27;20965;-90
2023/01/11 11:12:33;;;;;;;12.93;1.85;;;12.00;89.30;;;;;;5089803;27;20432;-90
2023/01/11 11:15:14;;;;;;;13.35;2.17;;;12.10;89.50;;;;;;5091076;27;20403;-90
2023/01/11 11:17:48;;;;;;;11.17;1.47;;;12.10;89.80;;;;;;5090981;27;20452;-92
2023/01/11 11:20:22;;;;;;;10.60;1.88;;;12.00;88.60;;;;;;5089911;27;20407;-91
2023/01/11 11:22:53;;;;;;;13.93;1.90;;;12.10;89.10;;;;;;5091034;27;20927;-91
2023/01/11 11:25:28;;;;;;;15.50;1.92;;;12.20;88.70;;;;;;5089577;27;20441;-90
2023/01/11 11:28:13;;;;;;;11.40;1.60;;;12.30;88.40;;;;;;5091140;27;20406;-90
2023/01/11 11:30:42;;;;;;;14.05;2.45;;;12.40;87.40;;;;;;5091144;28;20407;-90
2023/01/11 11:33:33;;;;;;;12.40;2.60;;;12.30;87.80;;;;;;5089734;28;20571;-90
2023/01/11 11:36:03;;;;;;;15.02;2.35;;;12.30;86.80;;;;;;5091087;28;20407;-91
2023/01/11 11:38:31;;;;;;;16.92;2.33;;;12.30;88.30;;;;;;5089971;28;20399;-90
2023/01/11 11:41:05;;;;;;;13.10;1.73;;;12.20;85.90;;;;;;5090483;28;20395;-91
2023/01/11 11:43:33;;;;;;;14.98;2.25;;;12.10;85.50;;;;;;5090113;28;20398;-92
2023/01/11 11:46:01;;;;;;;14.43;2.00;;;11.90;86.10;;;;;;5103234;28;20404;-90
2023/01/11 11:48:30;;;;;;;14.95;2.20;;;11.70;86.50;;;;;;5087376;28;20388;-89
2023/01/11 11:50:58;;;;;;;13.85;1.73;;;11.70;86.50;;;;;;5086425;28;20403;-91
2023/01/11 11:53:31;;;;;;;16.15;2.35;;;11.40;88.40;;;;;;5087075;28;20447;-90
2023/01/11 11:55:57;;;;;;;19.77;2.28;;;11.40;88.70;;;;;;5085780;28;20427;-89
2023/01/11 11:58:24;;;;;;;17.67;2.45;;;11.40;87.80;;;;;;5104082;28;20408;-91
2023/01/11 12:00:51;;;;;;;14.70;2.22;;;11.30;88.60;;;;;;5086814;28;20392;-91
2023/01/11 12:03:23;;;;;;;17.60;2.20;;;11.30;88.20;;;;;;5102964;28;20392;-91
2023/01/11 12:06:01;;;;;;;16.00;2.45;;;11.30;88.30;;;;;;5087530;28;20404;-90
2023/01/11 12:08:30;;;;;;;15.60;2.10;;;11.30;87.60;;;;;;5085918;28;20457;-91
2023/01/11 12:11:00;;;;;;;15.57;2.20;;;11.30;88.30;;;;;;5105044;28;20384;-90
2023/01/11 12:13:29;;;;;;;13.27;1.77;;;10.90;88.00;;;;;;5090193;28;20416;-91
2023/01/11 12:16:19;;;;;;;17.63;1.90;;;11.00;87.30;;;;;;5107870;28;20467;-90
2023/01/11 12:18:45;;;;;;;14.05;1.77;;;11.00;88.90;;;;;;5088290;28;20400;-90
2023/01/11 12:21:23;;;;;;;16.13;2.23;;;10.90;89.60;;;;;;5089846;28;20472;-92
2023/01/11 12:24:16;;;;;;;15.10;1.88;;;10.90;89.90;;;;;;5108134;28;20389;-90
2023/01/11 12:27:04;;;;;;;17.83;1.88;;;10.80;88.80;;;;;;5106986;28;20399;-91
2023/01/11 12:29:38;;;;;;;18.23;2.78;;;10.70;89.60;;;;;;5106842;28;20907;-92
2023/01/11 12:32:17;;;;;;;17.42;2.50;;;10.70;90.70;;;;;;5091351;28;20799;-90
2023/01/11 12:35:09;;;;;;;18.15;2.60;;;10.70;90.50;;;;;;5089978;28;20400;-91
2023/01/11 12:37:56;;;;;;;17.88;3.05;;;10.80;90.50;;;;;;5090463;28;20829;-91
2023/01/11 12:40:34;;;;;;;16.23;2.22;;;11.00;89.60;;;;;;5107948;28;20420;-90
2023/01/11 12:43:34;;;;;;;16.10;2.13;;;11.20;89.30;;;;;;5089734;28;20783;-90
2023/01/11 12:46:14;;;;;;;14.75;2.85;;;11.30;87.80;;;;;;5090354;28;20768;-89
2023/01/11 12:48:58;;;;;;;15.13;2.33;;;11.30;88.40;;;;;;5107141;28;20484;-91
2023/01/11 12:52:06;;;;;;;20.00;2.50;;;11.20;87.50;;;;;;5089477;28;20929;-91
2023/01/11 12:54:43;;;;;;;18.17;2.58;;;11.10;88.20;;;;;;5086882;28;20409;-90
2023/01/11 12:57:12;;;;;;;18.13;2.78;;;11.20;89.80;;;;;;5089954;28;20748;-90
2023/01/11 13:00:09;;;;;;;15.77;2.58;;;11.40;90.00;;;;;;5089471;28;20396;-90
2023/01/11 13:02:37;;;;;;;15.52;2.20;;;11.50;88.30;;;;;;5090262;28;20412;-90
2023/01/11 13:05:12;;;;;;;18.35;2.60;;;11.50;87.10;;;;;;5089093;28;20478;-90
2023/01/11 13:07:56;;;;;;;22.73;3.20;;;11.50;87.20;;;;;;5090448;28;20420;-90
2023/01/11 13:11:00;;;;;;;18.58;2.97;;;11.30;86.30;;;;;;5107180;28;20408;-89
2023/01/11 13:13:46;;;;;;;24.13;3.15;;;11.10;86.70;;;;;;5069941;28;21098;-89
2023/01/11 13:16:22;;;;;;;19.30;2.60;;;10.90;87.40;;;;;;5090197;28;20767;-90
2023/01/11 13:19:12;;;;;;;23.70;3.30;;;10.70;87.90;;;;;;5089745;28;20407;-91
2023/01/11 13:21:52;;;;;;;18.85;2.70;;;10.80;89.10;;;;;;5088947;28;20457;-92
2023/01/11 13:24:26;;;;;;;18.25;3.03;;;10.80;88.30;;;;;;5106712;28;20404;-92
2023/01/11 13:26:56;;;;;;;19.63;3.15;;;11.00;89.40;;;;;;5105823;28;20408;-91
2023/01/11 13:29:39;;;;;;;20.25;2.85;;;11.50;89.40;;;;;;5090195;28;20400;-91
2023/01/11 13:32:11;;;;;;;19.40;3.28;;;11.50;89.10;;;;;;5089547;28;20428;-91
2023/01/11 13:34:50;;;;;;;17.25;2.25;;;11.50;86.70;;;;;;5088579;28;20497;-91
2023/01/11 13:37:28;;;;;;;21.27;3.50;;;11.30;85.00;;;;;;5089372;28;20911;-89
2023/01/11 13:40:15;;;;;;;20.25;2.67;;;11.20;86.30;;;;;;5105886;28;20426;-90